createdAt,value
2019-03-11T00:02:11.464Z,3.60
2019-03-11T00:07:03.086Z,3.30
2019-03-11T00:11:53.985Z,3.57
2019-03-11T00:16:44.869Z,3.40
2019-03-11T00:21:35.773Z,3.27
2019-03-11T00:26:26.661Z,3.43
2019-03-11T00:31:19.815Z,4.05
2019-03-11T00:36:10.765Z,3.07
2019-03-11T00:41:02.381Z,3.77
2019-03-11T00:45:53.259Z,3.37
2019-03-11T00:50:44.149Z,4.00
2019-03-11T00:55:35.778Z,4.20
2019-03-11T01:00:27.451Z,3.97
2019-03-11T01:05:18.312Z,4.47
2019-03-11T01:10:09.207Z,3.30
2019-03-11T01:15:00.117Z,4.78
2019-03-11T01:19:51.018Z,4.20
2019-03-11T01:24:42.636Z,4.07
2019-03-11T01:29:33.524Z,3.83
2019-03-11T01:34:24.425Z,4.57
2019-03-11T01:39:15.296Z,5.47
2019-03-11T01:44:06.185Z,4.20
2019-03-11T01:48:57.821Z,4.37
2019-03-11T01:53:57.685Z,4.90
2019-03-11T01:58:48.592Z,4.75
2019-03-11T02:03:39.490Z,4.00
2019-03-11T02:08:31.130Z,3.17
2019-03-11T02:13:22.788Z,2.97
2019-03-11T02:18:13.679Z,2.90
2019-03-11T02:23:05.328Z,3.03
2019-03-11T02:27:56.235Z,2.90
2019-03-11T02:32:47.895Z,2.80
2019-03-11T02:37:38.792Z,2.57
2019-03-11T02:42:30.438Z,2.60
2019-03-11T02:47:21.379Z,3.33
2019-03-11T02:52:12.304Z,2.70
2019-03-11T02:57:03.218Z,2.37
2019-03-11T03:01:54.116Z,2.80
2019-03-11T03:06:45.022Z,2.40
2019-03-11T03:11:36.667Z,2.10
2019-03-11T03:16:27.573Z,2.10
2019-03-11T03:21:19.230Z,2.20
2019-03-11T03:26:10.136Z,2.30
2019-03-11T03:31:01.072Z,1.70
2019-03-11T03:35:51.994Z,1.70
2019-03-11T03:40:42.897Z,2.17
2019-03-11T03:45:34.811Z,2.00
2019-03-11T03:50:29.306Z,1.63
2019-03-11T03:55:20.230Z,1.90
2019-03-11T04:00:11.893Z,1.83
2019-03-11T04:05:02.813Z,2.37
2019-03-11T04:09:53.745Z,2.50
2019-03-11T04:14:44.662Z,2.40
2019-03-11T04:19:35.591Z,2.77
2019-03-11T04:24:26.487Z,2.60
2019-03-11T04:29:17.399Z,3.10
2019-03-11T04:34:09.052Z,3.47
2019-03-11T04:38:59.979Z,3.30
2019-03-11T04:43:50.896Z,3.20
2019-03-11T04:48:41.796Z,2.80
2019-03-11T04:53:32.682Z,3.65
2019-03-11T04:58:23.579Z,3.10
2019-03-11T05:03:14.505Z,3.10
2019-03-11T05:08:05.410Z,2.40
2019-03-11T05:12:56.308Z,2.53
2019-03-11T05:17:48.460Z,2.73
2019-03-11T05:22:38.184Z,2.50
2019-03-11T05:27:29.104Z,2.17
2019-03-11T05:32:21.477Z,2.20
2019-03-11T05:37:13.122Z,2.77
2019-03-11T05:42:04.769Z,2.55
2019-03-11T05:46:55.685Z,2.20
2019-03-11T05:51:46.608Z,2.27
2019-03-11T05:56:37.524Z,2.33
2019-03-11T06:01:28.517Z,2.90
2019-03-11T06:06:19.405Z,2.60
2019-03-11T06:11:10.343Z,2.73
2019-03-11T06:16:01.230Z,3.40
2019-03-11T06:20:52.150Z,3.37
2019-03-11T06:25:43.064Z,3.33
2019-03-11T06:30:33.962Z,2.80
2019-03-11T06:35:24.850Z,3.30
2019-03-11T06:40:15.786Z,3.90
2019-03-11T06:45:06.736Z,3.13
2019-03-11T06:49:57.673Z,3.20
2019-03-11T06:54:48.570Z,3.50
2019-03-11T06:59:39.481Z,2.77
2019-03-11T07:04:30.413Z,3.53
2019-03-11T07:09:21.381Z,3.75
2019-03-11T07:14:12.238Z,2.83
2019-03-11T07:19:03.145Z,3.27
2019-03-11T07:23:54.051Z,3.20
2019-03-11T07:28:45.703Z,3.47
2019-03-11T07:33:36.611Z,3.63
2019-03-11T07:38:28.313Z,3.00
2019-03-11T07:43:19.234Z,3.53
2019-03-11T07:48:10.136Z,3.57
2019-03-11T07:53:01.039Z,3.40
2019-03-11T07:57:51.938Z,2.30
2019-03-11T08:02:42.840Z,3.33
2019-03-11T08:07:33.749Z,3.30
2019-03-11T08:12:25.386Z,3.03
2019-03-11T08:17:17.028Z,2.77
2019-03-11T08:22:08.675Z,2.60
2019-03-11T08:26:59.568Z,3.20
2019-03-11T08:31:51.230Z,3.37
2019-03-11T08:36:42.149Z,3.00
2019-03-11T08:41:33.074Z,3.30
2019-03-11T08:46:23.958Z,2.37
2019-03-11T08:51:15.603Z,2.23
2019-03-11T08:56:07.248Z,2.00
2019-03-11T09:00:58.156Z,2.17
2019-03-11T09:05:49.798Z,2.90
2019-03-11T09:10:41.442Z,2.20
2019-03-11T09:15:32.691Z,2.42
2019-03-11T09:20:23.308Z,2.40
2019-03-11T09:25:16.157Z,2.10
2019-03-11T09:30:07.054Z,2.00
2019-03-11T09:34:58.701Z,2.30
2019-03-11T09:39:49.604Z,2.20
2019-03-11T09:44:41.243Z,2.10
2019-03-11T09:49:32.896Z,2.40
2019-03-11T09:54:23.795Z,2.70
2019-03-11T09:59:15.440Z,2.83
2019-03-11T10:04:06.369Z,3.00
2019-03-11T10:08:57.277Z,2.70
2019-03-11T10:13:48.191Z,2.30
2019-03-11T10:18:39.099Z,2.17
2019-03-11T10:23:32.423Z,2.10
2019-03-11T10:28:22.410Z,1.73
2019-03-11T10:33:13.309Z,2.20
2019-03-11T10:38:04.231Z,2.73
2019-03-11T10:42:55.144Z,2.60
2019-03-11T10:47:46.124Z,2.47
2019-03-11T10:52:37.018Z,2.00
2019-03-11T10:57:27.915Z,2.00
2019-03-11T11:02:18.826Z,3.17
2019-03-11T11:07:16.868Z,2.50
2019-03-11T11:12:07.785Z,1.90
2019-03-11T11:16:58.705Z,1.70
2019-03-11T11:21:49.615Z,2.30
2019-03-11T11:26:40.992Z,2.40
2019-03-11T11:31:31.894Z,2.70
2019-03-11T11:36:23.545Z,1.60
2019-03-11T11:41:16.494Z,1.83
2019-03-11T11:46:05.376Z,2.40
2019-03-11T11:50:56.373Z,2.50
2019-03-11T11:55:57.996Z,2.10
2019-03-11T12:00:46.816Z,2.37
2019-03-11T12:05:38.469Z,2.40
2019-03-11T12:10:29.375Z,1.70
2019-03-11T12:15:21.033Z,2.27
2019-03-11T12:20:13.982Z,1.87
2019-03-11T12:25:05.619Z,2.47
2019-03-11T12:29:57.269Z,2.27
2019-03-11T12:34:48.153Z,2.03
2019-03-11T12:39:39.046Z,1.50
2019-03-11T12:44:29.956Z,1.67
2019-03-11T12:49:20.889Z,1.80
2019-03-11T12:54:11.800Z,1.93
2019-03-11T12:59:02.740Z,1.67
2019-03-11T13:03:53.652Z,1.47
2019-03-11T13:08:44.638Z,1.40
2019-03-11T13:13:35.566Z,1.40
2019-03-11T13:23:44.559Z,1.50
2019-03-11T13:28:35.767Z,1.50
2019-03-11T13:33:27.038Z,1.13
2019-03-11T13:38:18.267Z,1.73
2019-03-11T13:43:09.527Z,1.70
2019-03-11T13:48:01.495Z,1.30
2019-03-11T13:52:52.746Z,1.23
2019-03-11T13:57:44.130Z,1.43
2019-03-11T14:02:35.348Z,1.23
2019-03-11T14:07:26.579Z,0.80
2019-03-11T14:12:17.759Z,1.40
2019-03-11T14:17:09.006Z,1.00
2019-03-11T14:22:00.441Z,1.40
2019-03-11T14:26:51.645Z,1.00
2019-03-11T14:31:42.901Z,1.27
2019-03-11T14:36:34.146Z,1.20
2019-03-11T14:41:25.378Z,1.00
2019-03-11T14:46:16.638Z,1.00
2019-03-11T14:51:08.615Z,1.00
2019-03-11T14:55:59.835Z,1.03
2019-03-11T15:00:51.035Z,0.90
2019-03-11T15:05:43.067Z,1.10
2019-03-11T15:10:35.184Z,1.10
2019-03-11T15:15:26.432Z,1.30
2019-03-11T15:20:17.717Z,1.50
2019-03-11T15:25:09.041Z,1.20
2019-03-11T15:30:00.497Z,1.23
2019-03-11T15:34:52.460Z,1.80
2019-03-11T15:39:43.727Z,1.20
2019-03-11T15:44:35.670Z,1.40
2019-03-11T15:49:27.736Z,1.63
2019-03-11T15:54:19.004Z,1.27
2019-03-11T15:59:11.007Z,1.27
2019-03-11T16:04:02.213Z,1.40
2019-03-11T16:08:53.447Z,1.30
2019-03-11T16:13:44.630Z,1.40
2019-03-11T16:18:35.938Z,1.37
2019-03-11T16:23:27.181Z,1.33
2019-03-11T16:28:19.237Z,1.00
2019-03-11T16:33:10.459Z,1.60
2019-03-11T16:38:01.724Z,1.27
2019-03-11T16:42:52.989Z,1.62
2019-03-11T16:47:44.957Z,1.10
2019-03-11T16:52:36.181Z,1.53
2019-03-11T16:57:27.413Z,1.13
2019-03-11T17:02:18.678Z,1.27
2019-03-11T17:07:09.903Z,0.90
2019-03-11T17:12:01.133Z,1.25
2019-03-11T17:16:52.280Z,1.53
2019-03-11T17:21:43.722Z,1.50
2019-03-11T17:26:35.652Z,1.17
2019-03-11T17:31:26.909Z,1.10
2019-03-11T17:36:18.846Z,1.30
2019-03-11T17:41:10.828Z,1.10
2019-03-11T17:46:02.810Z,1.33
2019-03-11T17:50:54.077Z,1.40
2019-03-11T17:55:46.057Z,1.40
2019-03-11T18:00:42.302Z,1.40
2019-03-11T18:05:33.551Z,1.37
2019-03-11T18:10:24.757Z,1.70
2019-03-11T18:15:16.010Z,1.07
2019-03-11T18:20:08.986Z,1.20
2019-03-11T18:25:03.939Z,1.30
2019-03-11T18:29:55.231Z,1.40
2019-03-11T18:34:46.467Z,1.87
2019-03-11T18:39:37.688Z,1.92
2019-03-11T18:44:28.960Z,1.47
2019-03-11T18:49:20.215Z,1.40
2019-03-11T18:54:11.490Z,1.10
2019-03-11T18:59:02.788Z,1.33
2019-03-11T19:03:54.012Z,1.23
2019-03-11T19:08:45.271Z,1.50
2019-03-11T19:13:36.504Z,1.60
2019-03-11T19:18:27.711Z,1.70
2019-03-11T19:23:18.971Z,1.30
2019-03-11T19:28:10.234Z,1.37
2019-03-11T19:33:01.530Z,1.00
2019-03-11T19:37:53.610Z,1.20
2019-03-11T19:42:44.937Z,1.40
2019-03-11T19:47:36.242Z,1.07
2019-03-11T19:52:27.561Z,1.20
2019-03-11T19:57:18.802Z,1.20
2019-03-11T20:02:10.812Z,1.40
2019-03-11T20:07:02.183Z,1.07
2019-03-11T20:11:54.279Z,1.40
2019-03-11T20:16:45.459Z,1.50
2019-03-11T20:21:37.543Z,1.53
2019-03-11T20:26:28.808Z,1.23
2019-03-11T20:31:20.304Z,1.20
2019-03-11T20:36:20.679Z,1.50
2019-03-11T20:41:03.670Z,1.60
2019-03-11T20:45:55.691Z,1.30
2019-03-11T20:50:46.948Z,1.30
2019-03-11T20:55:38.313Z,1.80
2019-03-11T21:00:29.599Z,1.57
2019-03-11T21:05:36.751Z,1.50
2019-03-11T21:10:28.230Z,1.67
2019-03-11T21:15:19.388Z,2.00
2019-03-11T21:20:13.746Z,1.80
2019-03-11T21:25:03.872Z,1.77
2019-03-11T21:29:55.832Z,1.57
2019-03-11T21:34:47.045Z,1.60
2019-03-11T21:39:38.380Z,1.77
2019-03-11T21:44:30.370Z,2.17
2019-03-11T21:49:23.700Z,1.47
2019-03-11T21:54:15.653Z,1.60
2019-03-11T21:59:06.990Z,1.70
2019-03-11T22:03:58.930Z,1.80
2019-03-11T22:08:50.150Z,1.70
2019-03-11T22:13:42.102Z,1.80
2019-03-11T22:18:34.051Z,1.73
2019-03-11T22:23:25.276Z,1.80
2019-03-11T22:28:17.247Z,1.50
2019-03-11T22:33:08.486Z,1.83
2019-03-11T22:37:59.695Z,1.90
2019-03-11T22:42:50.914Z,1.60
2019-03-11T22:47:42.160Z,2.12
2019-03-11T22:52:33.407Z,1.80
2019-03-11T22:57:24.634Z,2.23
2019-03-11T23:02:15.938Z,1.70
2019-03-11T23:07:07.194Z,2.30
2019-03-11T23:11:58.441Z,2.20
2019-03-11T23:16:51.181Z,1.63
2019-03-11T23:21:42.401Z,2.70
2019-03-11T23:26:33.624Z,2.77
2019-03-11T23:31:24.836Z,2.73
2019-03-11T23:36:16.835Z,2.27
2019-03-11T23:41:08.095Z,2.67
2019-03-11T23:46:00.131Z,2.80
2019-03-11T23:50:52.153Z,2.83
2019-03-11T23:55:43.372Z,3.50
